Time;durP1;ratioP1;P1;durP2;ratioP2;P2;SDS_P1;SDS_P2;PMS_P1;PMS_P2;Temp;Humidity;BMP_temperature;BMP_pressure;BME280_temperature;BME280_humidity;BME280_pressure;Samples;Min_cycle;Max_cycle;Signal;HPM_P1;HPM_P2
2021/12/15 00:01:11;;;;;;;32.75;14.95;;;;;;;13.24;63.19;102853.72;5050770;27;123790;-64
2021/12/15 00:03:38;;;;;;;29.63;14.27;;;;;;;13.24;63.45;102851.06;5056269;27;124308;-64
2021/12/15 00:06:12;;;;;;;29.33;15.05;;;;;;;13.23;63.50;102854.66;5053016;27;109050;-64
2021/12/15 00:08:40;;;;;;;34.85;14.93;;;;;;;13.24;63.62;102848.41;5053713;27;110353;-65
2021/12/15 00:11:08;;;;;;;28.73;14.93;;;;;;;13.25;63.53;102852.81;5033558;27;123386;-65
2021/12/15 00:13:37;;;;;;;28.33;15.13;;;;;;;13.26;63.51;102854.59;5034407;27;122962;-65
2021/12/15 00:16:07;;;;;;;30.38;15.30;;;;;;;13.26;63.49;102849.25;5038174;27;109254;-64
2021/12/15 00:18:36;;;;;;;31.92;15.10;;;;;;;13.27;63.63;102851.00;5041761;27;109647;-64
2021/12/15 00:21:03;;;;;;;30.73;14.38;;;;;;;13.27;63.57;102845.69;5050665;27;122821;-64
2021/12/15 00:23:30;;;;;;;30.23;14.45;;;;;;;13.28;63.47;102855.41;5052807;27;124585;-64
2021/12/15 00:25:57;;;;;;;30.00;14.50;;;;;;;13.28;63.56;102843.88;5050012;27;110651;-64
2021/12/15 00:28:25;;;;;;;34.00;14.88;;;;;;;13.27;63.57;102840.34;5056919;27;109941;-64
2021/12/15 00:30:52;;;;;;;32.25;16.17;;;;;;;13.27;63.65;102839.50;5037554;27;123311;-64
2021/12/15 00:33:19;;;;;;;31.10;14.52;;;;;;;13.25;63.61;102836.84;5052147;27;123792;-64
2021/12/15 00:35:47;;;;;;;31.98;14.45;;;;;;;13.26;63.70;102841.28;5050270;27;109383;-64
2021/12/15 00:38:14;;;;;;;33.05;14.65;;;;;;;13.25;63.66;102836.84;5050263;27;110338;-65
2021/12/15 00:40:42;;;;;;;27.65;14.32;;;;;;;13.24;63.67;102838.66;5036572;27;124637;-65
2021/12/15 00:43:09;;;;;;;31.55;15.25;;;;;;;13.25;63.74;102839.53;5052327;27;124013;-64
2021/12/15 00:45:36;;;;;;;33.03;15.65;;;;;;;13.25;63.61;102843.03;5037321;27;108382;-65
2021/12/15 00:48:04;;;;;;;32.90;15.32;;;;;;;13.25;63.75;102842.19;5038016;27;109659;-66
2021/12/15 00:50:34;;;;;;;34.47;16.00;;;;;;;13.25;63.72;102836.84;5039540;27;124153;-64
2021/12/15 00:53:03;;;;;;;29.83;14.85;;;;;;;13.24;63.66;102841.31;5065405;27;123856;-64
2021/12/15 00:55:30;;;;;;;33.45;15.05;;;;;;;13.25;63.69;102836.84;5052893;27;109554;-64
2021/12/15 00:57:59;;;;;;;33.10;15.40;;;;;;;13.23;63.77;102841.34;5058025;27;110063;-65
2021/12/15 01:00:31;;;;;;;32.22;15.75;;;;;;;13.22;63.77;102831.59;5033310;27;122895;-65
2021/12/15 01:02:58;;;;;;;32.95;15.98;;;;;;;13.21;63.77;102835.19;5036751;27;122734;-64
2021/12/15 01:05:30;;;;;;;31.08;15.30;;;;;;;13.20;63.78;102838.75;5066165;27;108972;-64
2021/12/15 01:07:59;;;;;;;31.45;15.43;;;;;;;13.19;63.69;102839.69;5051886;27;110319;-64
2021/12/15 01:10:39;;;;;;;36.53;15.55;;;;;;;13.18;63.86;102838.78;5039466;27;125023;-64
2021/12/15 01:21:25;;;;;;;34.20;15.30;;;;;;;13.15;63.88;102838.88;4968219;28;124199;-64
2021/12/15 01:23:52;;;;;;;32.85;16.00;;;;;;;13.15;63.82;102840.66;5017534;27;123038;-65
2021/12/15 01:26:20;;;;;;;33.95;15.73;;;;;;;13.14;63.90;102842.44;5044992;27;108450;-64
2021/12/15 01:28:47;;;;;;;33.92;15.52;;;;;;;13.13;63.93;102842.47;5063561;27;110029;-64
2021/12/15 01:31:14;;;;;;;30.27;15.27;;;;;;;13.11;63.84;102845.19;5036596;27;122965;-64
2021/12/15 01:33:42;;;;;;;34.00;15.50;;;;;;;13.10;63.89;102837.22;5036022;27;122751;-64
2021/12/15 01:36:10;;;;;;;34.88;15.18;;;;;;;13.10;63.98;102847.88;5049392;27;109734;-64
2021/12/15 01:38:40;;;;;;;30.50;14.43;;;;;;;13.08;64.04;102845.25;5050226;27;109983;-64
2021/12/15 01:41:19;;;;;;;34.55;15.90;;;;;;;13.08;63.97;102849.69;5047631;27;124772;-64
2021/12/15 01:49:38;;;;;;;35.88;16.10;;;;;;;13.03;64.16;102837.38;5048865;27;110592;-64
2021/12/15 01:52:16;;;;;;;37.08;16.08;;;;;;;13.03;64.08;102842.69;5037547;27;123342;-65
2021/12/15 01:54:48;;;;;;;37.55;16.27;;;;;;;13.00;64.12;102842.75;5053996;27;123745;-65
2021/12/15 01:57:18;;;;;;;39.35;16.15;;;;;;;13.01;64.16;102839.16;5051733;27;109236;-65
2021/12/15 01:59:48;;;;;;;37.60;15.80;;;;;;;13.01;64.10;102844.50;5038476;27;109037;-65
2021/12/15 02:02:17;;;;;;;35.28;16.13;;;;;;;13.03;64.23;102847.13;5032377;27;123482;-65
2021/12/15 02:04:47;;;;;;;40.35;16.08;;;;;;;13.05;64.29;102850.63;5047760;27;122981;-64
2021/12/15 02:07:17;;;;;;;38.30;16.50;;;;;;;13.05;64.28;102850.63;5046396;27;109915;-64
2021/12/15 02:12:39;;;;;;;34.92;15.50;;;;;;;13.04;64.30;102849.75;5049459;27;123668;-65
2021/12/15 02:15:14;;;;;;;38.83;16.50;;;;;;;13.03;64.26;102858.66;5045028;27;122251;-65
2021/12/15 02:17:41;;;;;;;;;;;;;;;13.02;64.13;102856.91;5037409;27;108173;-65
2021/12/15 02:20:18;;;;;;;34.63;15.80;;;;;;;13.03;63.97;102858.66;5044911;27;111327;-65
2021/12/15 02:22:46;;;;;;;36.50;15.43;;;;;;;13.04;64.24;102860.41;5036571;27;124039;-65
2021/12/15 02:25:16;;;;;;;34.55;15.90;;;;;;;13.05;64.28;102854.19;5019919;27;123155;-65
2021/12/15 02:27:43;;;;;;;34.92;14.77;;;;;;;13.07;64.33;102853.25;5046059;27;108431;-65
2021/12/15 02:30:39;;;;;;;34.13;15.90;;;;;;;13.08;64.27;102860.34;5024219;27;109013;-65
2021/12/15 02:38:40;;;;;;;36.55;15.82;;;;;;;13.09;64.17;102856.75;5049379;27;108516;-65
2021/12/15 02:41:31;;;;;;;39.40;15.82;;;;;;;13.11;64.34;102854.91;5038931;27;109169;-65
2021/12/15 02:44:03;;;;;;;38.28;15.70;;;;;;;13.12;64.25;102862.00;5044437;27;123271;-65
2021/12/15 02:46:34;;;;;;;36.22;15.27;;;;;;;13.11;64.23;102860.25;5057097;27;123836;-65
2021/12/15 02:49:05;;;;;;;33.95;15.30;;;;;;;13.11;64.41;102861.16;5055282;27;109230;-65
2021/12/15 02:51:34;;;;;;;36.08;15.30;;;;;;;13.11;64.26;102861.16;5052373;27;109973;-64
2021/12/15 02:54:07;;;;;;;36.10;15.68;;;;;;;13.10;64.12;102858.50;5069084;27;124519;-64
2021/12/15 02:56:35;;;;;;;33.65;15.02;;;;;;;13.10;64.21;102863.84;5060842;27;123604;-64
2021/12/15 02:59:05;;;;;;;35.75;15.55;;;;;;;13.10;64.19;102863.84;5044622;27;109276;-64
2021/12/15 03:07:09;;;;;;;35.90;14.63;;;;;;;13.13;64.36;102853.09;5055903;27;124252;-65
2021/12/15 03:17:57;;;;;;;37.35;14.82;;;;;;;13.10;64.27;102853.19;5036198;27;123452;-65
2021/12/15 03:20:30;;;;;;;37.55;15.10;;;;;;;13.09;64.20;102854.09;5051565;27;110325;-65
2021/12/15 03:22:58;;;;;;;33.33;14.77;;;;;;;13.09;64.14;102851.44;5054066;27;110115;-65
2021/12/15 03:25:29;;;;;;;37.38;15.20;;;;;;;13.09;64.23;102854.09;5038157;27;123973;-65
2021/12/15 03:33:54;;;;;;;35.42;14.55;;;;;;;13.08;64.19;102844.38;5055139;27;108763;-64
2021/12/15 03:36:40;;;;;;;36.15;14.95;;;;;;;13.04;64.28;102849.75;5069741;27;124823;-65
2021/12/15 03:39:11;;;;;;;39.17;15.90;;;;;;;13.04;64.31;102854.22;5057980;27;125412;-64
2021/12/15 03:41:39;;;;;;;37.70;15.65;;;;;;;13.03;64.30;102853.34;5036197;27;108157;-65
2021/12/15 03:44:07;;;;;;;34.63;14.82;;;;;;;13.01;64.30;102855.13;5053216;27;110294;-65
2021/12/15 03:46:34;;;;;;;34.88;14.90;;;;;;;13.02;64.41;102862.22;5052464;27;124738;-65
2021/12/15 03:49:03;;;;;;;37.83;15.32;;;;;;;13.02;64.37;102864.88;5053046;27;123863;-64
2021/12/15 03:51:30;;;;;;;39.15;15.73;;;;;;;13.03;64.33;102857.75;5052572;27;110194;-65
2021/12/15 03:53:57;;;;;;;36.28;15.43;;;;;;;13.06;64.45;102855.03;5051965;27;110115;-65
2021/12/15 03:56:25;;;;;;;38.60;15.88;;;;;;;13.08;64.29;102865.66;5055210;27;123981;-64
2021/12/15 03:58:52;;;;;;;36.88;14.68;;;;;;;13.07;64.30;102859.44;5058729;27;123988;-65
2021/12/15 04:01:21;;;;;;;37.28;15.90;;;;;;;13.08;64.28;102860.34;5063012;27;108982;-65
2021/12/15 04:03:53;;;;;;;37.42;15.45;;;;;;;13.10;64.33;102869.16;5045561;27;110769;-65
2021/12/15 04:06:24;;;;;;;37.65;15.00;;;;;;;13.10;64.28;102863.84;5033139;27;124834;-65
2021/12/15 04:08:53;;;;;;;38.42;16.40;;;;;;;13.10;64.36;102864.69;5051540;27;123994;-64
2021/12/15 04:11:23;;;;;;;39.42;15.63;;;;;;;13.11;64.29;102865.56;5060069;27;109198;-64
2021/12/15 04:13:52;;;;;;;36.30;14.77;;;;;;;13.10;64.41;102874.47;5060847;27;110149;-65
2021/12/15 04:17:00;;;;;;;34.42;14.55;;;;;;;13.10;64.21;102871.81;5053021;27;124032;-64
2021/12/15 04:19:17;;;;;;;39.00;14.82;;;;;;;13.08;64.48;102865.66;5049210;27;124212;-64
2021/12/15 04:21:44;;;;;;;36.08;15.27;;;;;;;13.10;64.37;102870.03;5051279;27;109339;-65
2021/12/15 04:24:15;;;;;;;38.83;15.43;;;;;;;13.12;64.39;102877.97;5058436;27;109878;-65
2021/12/15 04:26:44;;;;;;;36.88;14.95;;;;;;;13.12;64.40;102883.28;5053099;27;124846;-65
2021/12/15 04:29:12;;;;;;;37.72;15.50;;;;;;;13.12;64.28;102867.34;5050339;27;124689;-65
2021/12/15 04:31:46;;;;;;;34.90;13.95;;;;;;;13.11;64.34;102876.22;5050568;27;109266;-65
2021/12/15 04:34:14;;;;;;;36.85;14.18;;;;;;;13.12;64.32;102877.97;5052539;27;110102;-65
2021/12/15 04:36:44;;;;;;;36.05;14.82;;;;;;;13.12;64.35;102878.84;5052298;27;123818;-65
2021/12/15 04:39:14;;;;;;;34.42;15.13;;;;;;;13.13;64.46;102863.75;5049924;27;124748;-65
2021/12/15 04:41:47;;;;;;;39.42;14.27;;;;;;;13.14;64.38;102876.16;5052651;27;110070;-64
2021/12/15 04:44:17;;;;;;;37.50;14.15;;;;;;;13.14;64.26;102878.81;5033430;27;109895;-64
2021/12/15 04:46:56;;;;;;;37.97;14.80;;;;;;;13.15;64.48;102877.91;5055920;27;124465;-64
2021/12/15 04:49:24;;;;;;;32.30;14.05;;;;;;;13.14;64.52;102881.47;5037355;27;122764;-64
2021/12/15 04:51:51;;;;;;;34.55;13.85;;;;;;;13.15;64.43;102877.91;5055371;27;109231;-64
2021/12/15 04:54:19;;;;;;;38.50;14.70;;;;;;;13.15;64.42;102883.25;5056425;27;110361;-64
2021/12/15 04:56:47;;;;;;;35.78;14.68;;;;;;;13.15;64.38;102888.56;5053925;27;123345;-64
2021/12/15 04:59:16;;;;;;;35.38;14.00;;;;;;;13.14;64.48;102887.66;5064638;27;123852;-64
2021/12/15 05:01:44;;;;;;;32.53;13.43;;;;;;;13.15;64.57;102883.25;5065907;27;109059;-65
2021/12/15 05:04:12;;;;;;;33.03;13.35;;;;;;;13.15;64.34;102877.91;5052943;27;109824;-65
2021/12/15 05:06:39;;;;;;;33.88;14.07;;;;;;;13.18;64.47;102883.16;5052748;27;124063;-65
2021/12/15 05:09:07;;;;;;;34.92;13.10;;;;;;;13.18;64.50;102891.13;5041121;27;125616;-65
2021/12/15 05:11:35;;;;;;;34.55;12.93;;;;;;;13.18;64.34;102896.44;5042895;27;109243;-65
2021/12/15 05:14:03;;;;;;;34.72;13.80;;;;;;;13.17;64.17;102892.91;5053067;27;111110;-65
2021/12/15 05:16:30;;;;;;;34.00;13.88;;;;;;;13.17;64.34;102897.38;5035725;27;123213;-65
2021/12/15 05:18:58;;;;;;;31.83;14.30;;;;;;;13.18;64.52;102899.09;5061860;27;124195;-65
2021/12/15 05:21:26;;;;;;;34.65;13.77;;;;;;;13.18;64.46;102901.78;5049750;27;109315;-65
2021/12/15 05:23:57;;;;;;;38.03;14.25;;;;;;;13.20;64.32;102902.59;5050350;27;110709;-65
2021/12/15 05:26:24;;;;;;;33.83;13.45;;;;;;;13.18;64.40;102899.09;5051390;27;124554;-65
2021/12/15 05:28:51;;;;;;;31.23;12.90;;;;;;;13.18;64.53;102899.09;5054459;27;124096;-65
2021/12/15 05:31:19;;;;;;;34.30;14.57;;;;;;;13.18;64.10;102904.44;5065167;27;110087;-65
2021/12/15 05:33:46;;;;;;;27.98;13.82;;;;;;;13.18;64.48;102904.44;5057563;27;110171;-65
2021/12/15 05:36:14;;;;;;;32.78;13.30;;;;;;;13.19;64.31;102906.19;5060434;27;124089;-65
2021/12/15 05:38:41;;;;;;;32.70;13.55;;;;;;;13.19;64.47;102906.19;5050856;27;124363;-65
2021/12/15 05:41:08;;;;;;;30.58;12.90;;;;;;;13.18;64.45;102909.75;5032772;27;109957;-65
2021/12/15 05:43:38;;;;;;;30.83;13.02;;;;;;;13.18;64.33;102915.06;5055038;27;110203;-65
2021/12/15 05:46:05;;;;;;;27.90;12.38;;;;;;;13.17;64.41;102902.69;5058252;27;124506;-65
2021/12/15 05:48:33;;;;;;;31.48;13.63;;;;;;;13.17;64.41;102908.03;5059078;27;124652;-65
2021/12/15 05:51:00;;;;;;;31.73;12.95;;;;;;;13.19;64.44;102900.88;5053541;27;109343;-65
2021/12/15 05:53:27;;;;;;;30.33;12.88;;;;;;;13.20;64.52;102902.59;5056212;27;109709;-65
2021/12/15 05:55:55;;;;;;;29.35;12.43;;;;;;;13.20;64.40;102907.94;5054594;27;124705;-65
2021/12/15 05:58:22;;;;;;;32.90;12.68;;;;;;;13.21;64.54;102904.38;5058069;27;124023;-65
2021/12/15 06:00:49;;;;;;;27.38;12.25;;;;;;;13.20;64.57;102907.94;5052609;27;109385;-64
2021/12/15 06:03:17;;;;;;;27.13;12.32;;;;;;;13.20;64.50;102913.25;5041661;27;108838;-65
2021/12/15 06:05:44;;;;;;;26.90;12.40;;;;;;;13.20;64.46;102907.94;5059505;27;124597;-65
2021/12/15 06:08:11;;;;;;;31.27;12.63;;;;;;;13.20;64.58;102918.56;5046338;27;122667;-65
2021/12/15 06:10:40;;;;;;;29.10;11.90;;;;;;;13.20;64.51;102918.56;5036938;27;109699;-65
2021/12/15 06:13:10;;;;;;;28.20;12.27;;;;;;;13.20;64.51;102918.56;5059418;27;109961;-66
2021/12/15 06:15:40;;;;;;;31.65;12.75;;;;;;;13.21;64.38;102917.69;5067504;27;124163;-65
2021/12/15 06:18:12;;;;;;;26.30;12.00;;;;;;;13.20;64.47;102926.56;5066655;27;125897;-66
2021/12/15 06:20:41;;;;;;;30.25;12.40;;;;;;;13.21;64.51;102920.34;5053954;27;110330;-65
2021/12/15 06:23:10;;;;;;;26.13;11.13;;;;;;;13.21;64.50;102930.97;5055227;27;110033;-66
2021/12/15 06:25:39;;;;;;;30.85;12.25;;;;;;;13.22;64.36;102932.72;5060523;27;124428;-66
2021/12/15 06:28:07;;;;;;;31.27;12.52;;;;;;;13.20;64.50;102930.13;5052847;27;123985;-66
2021/12/15 06:30:35;;;;;;;30.67;12.45;;;;;;;13.22;64.43;102932.72;5040342;27;109012;-66
2021/12/15 06:33:03;;;;;;;28.05;12.27;;;;;;;13.22;64.45;102938.03;5057078;27;109929;-66
2021/12/15 06:35:31;;;;;;;28.55;11.85;;;;;;;13.21;64.62;102931.84;5052043;27;123191;-66
2021/12/15 06:37:58;;;;;;;29.15;12.15;;;;;;;13.22;64.59;102932.72;5054274;27;123865;-65
2021/12/15 06:40:25;;;;;;;27.00;12.02;;;;;;;13.22;64.53;102943.34;5051936;27;109367;-65
2021/12/15 06:42:52;;;;;;;29.77;12.32;;;;;;;13.22;64.45;102938.94;5054798;27;109008;-65
2021/12/15 06:45:24;;;;;;;29.52;12.13;;;;;;;13.22;64.55;102943.34;5022376;27;122916;-65
2021/12/15 06:58:54;;;;;;;27.73;12.07;;;;;;;13.20;64.55;102945.19;5060268;27;123787;-65
2021/12/15 07:01:22;;;;;;;31.08;12.73;;;;;;;13.20;64.67;102942.53;5052155;27;109757;-65
2021/12/15 07:03:50;;;;;;;23.98;11.15;;;;;;;13.20;64.60;102945.19;5057976;27;109802;-66
2021/12/15 07:06:17;;;;;;;28.63;12.00;;;;;;;13.21;64.48;102947.81;5057046;27;124894;-65
2021/12/15 07:08:45;;;;;;;29.17;11.93;;;;;;;13.22;64.59;102951.34;5058158;27;124153;-65
2021/12/15 07:11:13;;;;;;;32.30;12.93;;;;;;;13.22;64.62;102954.00;5064603;27;110099;-65
2021/12/15 07:13:40;;;;;;;29.80;12.10;;;;;;;13.22;64.57;102960.22;5054047;27;109182;-66
2021/12/15 07:16:09;;;;;;;33.22;13.30;;;;;;;13.22;64.56;102954.91;5030394;27;123509;-66
2021/12/15 07:18:45;;;;;;;27.70;11.95;;;;;;;13.22;64.57;102960.22;5052491;27;124647;-65
2021/12/15 07:21:20;;;;;;;30.17;12.40;;;;;;;13.22;64.52;102959.31;5053175;27;109150;-65
2021/12/15 07:23:49;;;;;;;33.08;12.85;;;;;;;13.24;64.62;102958.41;5062714;27;110166;-65
2021/12/15 07:26:17;;;;;;;30.58;12.23;;;;;;;13.25;64.66;102964.59;5072270;27;125449;-66
2021/12/15 07:28:44;;;;;;;29.95;11.85;;;;;;;13.25;64.62;102961.94;5072382;27;123826;-65
2021/12/15 07:31:12;;;;;;;28.23;12.15;;;;;;;13.26;64.61;102961.03;5072893;27;109539;-65
2021/12/15 07:33:40;;;;;;;31.70;12.60;;;;;;;13.25;64.69;102964.59;5070075;27;110338;-65
2021/12/15 07:36:07;;;;;;;30.45;12.43;;;;;;;13.26;64.61;102966.34;5071508;27;124561;-65
2021/12/15 07:38:41;;;;;;;30.98;12.50;;;;;;;13.28;64.54;102969.84;5066262;27;124890;-64
2021/12/15 07:41:23;;;;;;;30.52;12.48;;;;;;;13.27;64.61;102970.75;5049506;27;109353;-64
2021/12/15 07:43:52;;;;;;;32.90;12.68;;;;;;;13.29;64.66;102963.59;5053453;27;109921;-66
2021/12/15 07:46:40;;;;;;;31.70;12.75;;;;;;;13.30;64.45;102973.38;5058482;27;124783;-65
2021/12/15 07:49:07;;;;;;;30.23;12.77;;;;;;;13.30;64.66;102968.06;5053220;27;123571;-65
2021/12/15 07:51:34;;;;;;;32.13;12.55;;;;;;;13.31;64.61;102969.81;5068875;27;109334;-65
2021/12/15 07:54:02;;;;;;;30.10;12.60;;;;;;;13.31;64.64;102977.78;5060846;27;110008;-64
2021/12/15 07:56:29;;;;;;;31.80;11.95;;;;;;;13.31;64.69;102975.13;5072883;27;123881;-65
2021/12/15 07:58:56;;;;;;;32.60;12.95;;;;;;;13.33;64.57;102967.97;5072413;27;124062;-64
2021/12/15 08:01:24;;;;;;;29.33;12.73;;;;;;;13.34;64.47;102980.38;5072788;27;110691;-64
2021/12/15 08:03:54;;;;;;;32.40;13.13;;;;;;;13.34;64.62;102985.72;5071416;27;110369;-65
2021/12/15 08:06:23;;;;;;;32.85;13.38;;;;;;;13.33;64.49;102978.63;5072265;27;124144;-66
2021/12/15 08:08:51;;;;;;;33.40;12.88;;;;;;;13.34;64.54;102980.38;5055996;27;123632;-64
2021/12/15 08:11:19;;;;;;;35.20;13.57;;;;;;;13.35;64.56;102981.25;5073721;27;108991;-64
2021/12/15 08:13:46;;;;;;;36.33;13.10;;;;;;;13.35;64.48;102982.13;5075039;27;109732;-64
2021/12/15 08:16:14;;;;;;;33.92;13.18;;;;;;;13.36;64.60;102988.34;5056376;27;122820;-64
2021/12/15 08:18:41;;;;;;;33.95;13.18;;;;;;;13.37;64.60;102990.97;5072877;27;124404;-63
2021/12/15 08:21:09;;;;;;;40.25;13.73;;;;;;;13.38;64.42;102998.03;5071555;27;108961;-63
2021/12/15 08:23:37;;;;;;;34.25;13.27;;;;;;;13.38;64.58;102987.38;5072221;27;110269;-64
2021/12/15 08:26:05;;;;;;;31.27;13.25;;;;;;;13.38;64.69;102982.06;5073900;27;123910;-63
2021/12/15 08:28:33;;;;;;;34.20;13.40;;;;;;;13.38;64.51;102986.53;5056320;27;124369;-63
2021/12/15 08:31:00;;;;;;;37.58;13.52;;;;;;;13.36;64.53;102994.53;5071473;27;109019;-63
2021/12/15 08:33:28;;;;;;;34.22;13.70;;;;;;;13.38;64.49;102992.72;5075149;27;110210;-63
2021/12/15 08:36:05;;;;;;;37.38;13.50;;;;;;;13.38;64.64;102991.84;5071613;27;124129;-63
2021/12/15 08:38:36;;;;;;;33.72;12.60;;;;;;;13.40;64.69;102998.00;5071733;27;124253;-63
2021/12/15 08:41:07;;;;;;;33.50;13.35;;;;;;;13.39;64.68;102999.81;5074128;27;109095;-63
2021/12/15 08:43:35;;;;;;;35.63;13.25;;;;;;;13.40;64.77;103001.53;5072866;27;109908;-63
2021/12/15 08:46:07;;;;;;;33.67;13.48;;;;;;;13.39;64.56;102999.81;5072820;27;124712;-63
2021/12/15 08:48:37;;;;;;;35.45;13.55;;;;;;;13.40;64.72;102996.22;5073414;27;124242;-63
2021/12/15 08:51:05;;;;;;;34.00;13.27;;;;;;;13.41;64.59;102992.66;5070771;27;110247;-63
2021/12/15 08:53:33;;;;;;;33.13;13.90;;;;;;;13.41;64.61;102995.31;5074252;27;109914;-63
2021/12/15 08:56:01;;;;;;;37.85;13.75;;;;;;;13.42;64.83;103005.03;5071982;27;123865;-63
2021/12/15 08:58:28;;;;;;;37.20;13.95;;;;;;;13.41;64.68;102992.66;5072303;27;124018;-63
2021/12/15 09:00:57;;;;;;;40.65;14.98;;;;;;;13.43;64.62;103004.13;5072510;27;109211;-63
2021/12/15 09:03:27;;;;;;;39.08;14.38;;;;;;;13.46;64.68;103004.97;5074281;27;109906;-63
2021/12/15 09:05:57;;;;;;;33.53;13.60;;;;;;;13.44;64.69;102997.03;5073786;27;124106;-63
2021/12/15 09:08:26;;;;;;;37.72;14.35;;;;;;;13.47;64.63;103004.06;5071229;27;123655;-63
2021/12/15 09:10:56;;;;;;;38.70;14.63;;;;;;;13.48;64.62;103011.16;5053800;27;109058;-63
2021/12/15 09:13:29;;;;;;;36.42;14.60;;;;;;;13.48;64.62;103008.47;5074391;27;109833;-63
2021/12/15 09:15:59;;;;;;;39.25;14.10;;;;;;;13.49;64.71;103004.91;5072931;27;124855;-64
2021/12/15 09:18:26;;;;;;;42.25;14.98;;;;;;;13.49;64.67;103010.25;5074933;27;124303;-63
2021/12/15 09:20:54;;;;;;;38.78;14.63;;;;;;;13.49;64.69;103012.91;5074487;27;109510;-63
2021/12/15 09:23:21;;;;;;;40.92;14.45;;;;;;;13.50;64.81;103009.31;5077649;27;110496;-63
2021/12/15 09:25:49;;;;;;;38.10;13.50;;;;;;;13.52;64.83;103016.34;5074688;27;124301;-63
2021/12/15 09:28:18;;;;;;;38.97;14.48;;;;;;;13.54;64.69;103019.88;5076594;27;124643;-63
2021/12/15 09:30:47;;;;;;;39.78;14.45;;;;;;;13.55;64.68;103020.75;5076839;27;109809;-63
2021/12/15 09:33:20;;;;;;;37.20;15.02;;;;;;;13.58;64.64;103018.00;5059348;27;108927;-63
2021/12/15 09:35:48;;;;;;;42.25;14.30;;;;;;;13.59;64.72;103022.44;5059644;27;124684;-63
2021/12/15 09:38:17;;;;;;;35.92;14.05;;;;;;;13.60;64.68;103029.53;5053746;27;123765;-62
2021/12/15 09:40:45;;;;;;;41.50;14.73;;;;;;;13.61;64.70;103025.94;5055007;27;110860;-63
2021/12/15 09:43:13;;;;;;;39.97;15.13;;;;;;;13.63;64.76;103030.28;5056774;27;110171;-63
2021/12/15 09:57:01;;;;;;;39.20;15.10;;;;;;;13.67;64.77;103030.22;5053979;27;124758;-63
2021/12/15 10:04:45;;;;;;;;;;;;;;;13.65;64.50;103032.94;5054874;27;109735;-63
2021/12/15 10:18:37;;;;;;;36.63;14.57;;;;;;;13.71;64.65;103038.13;5055818;27;124797;-63
2021/12/15 10:21:05;;;;;;;39.33;15.57;;;;;;;13.73;64.57;103041.63;5054824;27;123834;-64
2021/12/15 10:23:40;;;;;;;38.15;15.10;;;;;;;13.76;64.75;103035.34;5056792;27;109106;-63
2021/12/15 10:26:07;;;;;;;35.70;15.53;;;;;;;13.78;64.66;103045.03;5038789;27;108854;-63
2021/12/15 10:28:38;;;;;;;39.97;16.00;;;;;;;13.79;64.71;103036.16;5055054;27;124404;-63
2021/12/15 10:31:11;;;;;;;38.13;15.30;;;;;;;13.82;64.61;103045.84;5053878;27;124644;-63
2021/12/15 10:33:43;;;;;;;39.08;15.02;;;;;;;13.85;64.73;103050.25;5056339;27;110049;-63
2021/12/15 10:36:13;;;;;;;38.08;15.77;;;;;;;13.87;64.69;103049.28;5036339;27;109999;-63
2021/12/15 10:38:44;;;;;;;38.05;15.50;;;;;;;13.89;64.66;103046.59;5054546;27;124080;-63
2021/12/15 10:41:22;;;;;;;39.75;16.17;;;;;;;13.91;64.53;103042.13;5054040;27;123926;-63
2021/12/15 10:44:00;;;;;;;37.88;14.93;;;;;;;13.94;65.08;103045.59;5053202;27;109569;-62
2021/12/15 10:46:38;;;;;;;37.72;16.15;;;;;;;13.96;64.63;103048.22;5054222;27;110196;-63
2021/12/15 10:49:20;;;;;;;37.88;15.93;;;;;;;13.97;64.62;103044.63;5054265;27;124881;-63
2021/12/15 10:51:50;;;;;;;37.30;15.73;;;;;;;13.99;64.80;103042.78;5053180;27;124967;-63
2021/12/15 10:54:25;;;;;;;34.42;15.13;;;;;;;14.05;64.52;103042.63;5037696;27;108195;-63
2021/12/15 10:57:09;;;;;;;44.90;16.55;;;;;;;14.07;64.50;103043.50;5035494;27;110320;-63
2021/12/15 10:59:45;;;;;;;38.13;16.35;;;;;;;14.10;64.41;103043.41;5052682;27;124848;-63
2021/12/15 11:02:32;;;;;;;40.60;16.00;;;;;;;14.12;64.63;103044.25;5036520;27;122844;-63
2021/12/15 11:05:12;;;;;;;36.65;15.77;;;;;;;14.13;64.52;103046.00;5053778;27;110224;-63
2021/12/15 11:07:50;;;;;;;36.90;15.43;;;;;;;14.14;64.38;103045.06;5054189;27;109890;-64
2021/12/15 11:10:25;;;;;;;35.17;16.08;;;;;;;14.18;64.49;103038.78;5036411;27;123529;-64
2021/12/15 11:13:05;;;;;;;39.08;16.60;;;;;;;14.24;64.59;103039.53;5053560;27;123751;-64
2021/12/15 11:15:47;;;;;;;37.80;17.10;;;;;;;14.27;64.51;103036.78;5053739;27;109203;-63
2021/12/15 11:18:22;;;;;;;37.08;16.83;;;;;;;14.30;64.36;103031.41;5037227;27;108837;-63
2021/12/15 11:20:53;;;;;;;37.23;16.03;;;;;;;14.31;64.38;103033.13;5053758;27;123973;-63
2021/12/15 11:23:22;;;;;;;36.45;16.63;;;;;;;14.35;64.39;103040.13;5036092;27;123910;-64
2021/12/15 11:25:54;;;;;;;38.72;16.73;;;;;;;14.36;64.28;103036.56;5052375;27;109874;-64
2021/12/15 11:28:35;;;;;;;35.53;15.93;;;;;;;14.38;64.37;103034.72;5056899;27;108981;-64
2021/12/15 11:31:06;;;;;;;35.80;16.33;;;;;;;14.41;64.42;103029.31;5052441;27;124444;-63
2021/12/15 11:33:41;;;;;;;34.38;16.65;;;;;;;14.44;64.25;103033.69;5047114;27;124019;-63
2021/12/15 11:36:25;;;;;;;40.20;17.98;;;;;;;14.45;64.25;103025.66;5066644;27;109778;-62
2021/12/15 11:39:06;;;;;;;37.05;16.92;;;;;;;14.48;64.28;103030.88;5058427;27;109768;-65
2021/12/15 11:41:37;;;;;;;37.30;16.40;;;;;;;14.50;64.18;103034.38;5034168;27;123590;-63
2021/12/15 11:44:15;;;;;;;34.63;17.25;;;;;;;14.52;64.02;103031.69;5055438;27;123956;-63
2021/12/15 11:46:51;;;;;;;39.38;17.88;;;;;;;14.52;64.03;103029.91;5052933;27;108069;-63
2021/12/15 11:49:17;;;;;;;;;;;;;;;14.52;64.11;103032.59;5037477;27;110541;-64
2021/12/15 11:51:54;;;;;;;39.30;17.30;;;;;;;14.54;64.03;103030.75;5052711;27;124124;-64
2021/12/15 11:54:26;;;;;;;36.65;16.60;;;;;;;14.53;63.93;103026.31;5040039;27;122797;-63
2021/12/15 11:57:14;;;;;;;34.45;16.67;;;;;;;14.53;63.94;103028.97;5055398;27;109501;-64
2021/12/15 11:59:49;;;;;;;36.42;17.33;;;;;;;14.55;63.94;103026.28;5054767;27;110276;-64
2021/12/15 12:02:23;;;;;;;37.17;16.95;;;;;;;14.56;63.92;103028.91;5052965;27;124381;-63
2021/12/15 12:04:54;;;;;;;38.28;17.70;;;;;;;14.57;64.10;103028.00;5071431;27;124145;-64
2021/12/15 12:07:32;;;;;;;36.15;17.73;;;;;;;14.59;63.98;103018.19;5064278;27;109062;-64
2021/12/15 12:10:13;;;;;;;34.78;17.52;;;;;;;14.61;63.83;103012.81;5050983;27;110254;-64
2021/12/15 12:12:52;;;;;;;38.28;17.95;;;;;;;14.63;63.88;103023.44;5052479;27;123809;-63
2021/12/15 12:15:24;;;;;;;39.58;18.63;;;;;;;14.63;63.78;103018.09;5052878;27;123959;-63
2021/12/15 12:17:54;;;;;;;43.20;18.85;;;;;;;14.66;63.79;103015.38;5035593;27;110368;-63
2021/12/15 12:20:28;;;;;;;40.03;18.38;;;;;;;14.68;63.85;103008.19;5053858;27;109349;-63
2021/12/15 12:22:57;;;;;;;36.80;18.20;;;;;;;14.71;63.86;103006.31;5056427;27;124031;-63
2021/12/15 12:25:30;;;;;;;38.45;18.33;;;;;;;14.76;63.84;103009.72;5058334;27;123729;-63
2021/12/15 12:27:58;;;;;;;38.95;18.38;;;;;;;14.78;63.82;103004.34;5057241;27;109363;-63
2021/12/15 12:30:41;;;;;;;36.05;17.25;;;;;;;14.81;63.58;102995.41;5052033;27;109946;-63
2021/12/15 12:33:10;;;;;;;34.95;18.10;;;;;;;14.82;63.70;102997.13;5052120;27;123924;-63
2021/12/15 12:35:50;;;;;;;36.47;18.08;;;;;;;14.83;63.64;103009.56;5052360;27;124498;-64
2021/12/15 12:38:21;;;;;;;37.30;18.05;;;;;;;14.84;63.60;103005.97;5053511;27;109535;-63